Flight Track Log - Related Links

Times and Time Zones

All times are in EDT time to prevent confusion due to time zone crossing. See the SWA3135 flight status page for this flight to view local times or setup timezone preferences in your user account.


Time Position Orientation Groundspeed Altitude Reporting Facility
EDT Latitude Longitude Course Direction KTS MPH feet Rate Location/Type
Fri 07:39:15 PM 40.7667 -73.8167 57° Northeast 202 232 1,500  Level New York TRACON
Fri 07:40:15 PM 40.8000 -73.7500 57° Northeast 237 273 4,800 3,238 Climbing New York TRACON
Fri 07:41:21 PM 40.8833 -73.7500 360° North 291 335 8,300 2,000 Climbing New York TRACON
Fri 07:42:21 PM 40.9333 -73.8333 308° West 280 322 9,000 368 Climbing New York TRACON
Fri 07:43:15 PM 40.9500 -73.9167 285° West 280 322 9,000 1,053 Level New York TRACON
Fri 07:44:15 PM 40.9833 -74.0167 294° West 282 325 11,000 2,450 Climbing New York TRACON
Fri 07:45:15 PM 41.0000 -74.1333 281° West 342 394 13,900 1,740 Climbing New York TRACON
Fri 07:47:04 PM 41.0556 -74.3400 290° West 371 427 15,900 741 Climbing New York Center
Fri 07:48:05 PM 41.0867 -74.4764 287° West 364 419 16,000 50 Climbing New York Center
Fri 07:49:03 PM 41.1164 -74.5964 288° West 370 426 16,000 504 Level New York Center
Fri 07:50:04 PM 41.1575 -74.7394 291° West 375 432 17,000 1,750 Climbing New York Center
Fri 07:51:03 PM 41.2058 -74.8469 301° West 382 440 19,500 2,500 Climbing New York Center
Fri 07:52:04 PM 41.2614 -74.9856 298° West 402 463 22,000 2,479 Climbing New York Center
Fri 07:53:04 PM 41.3208 -75.1247 300° West 417 480 24,500 2,331 Climbing New York Center
Fri 07:54:05 PM 41.3822 -75.2669 300° West 431 496 26,700 2,017 Climbing New York Center
Fri 07:55:03 PM 41.4511 -75.4236 300° West 442 509 28,500 2,471 Climbing New York Center
Fri 07:56:04 PM 41.4978 -75.5600 295° West 447 514 31,600 2,585 Climbing New York Center
Fri 07:57:06 PM 41.5414 -75.7128 291° West 442 509 33,800 1,967 Climbing New York Center
Fri 07:58:06 PM 41.5850 -75.8628 291° West 442 509 35,600 1,983 Climbing New York Center
Fri 07:59:04 PM 41.6319 -76.0303 291° West 442 509 37,700 1,881 Climbing New York Center
Fri 08:00:04 PM 41.6772 -76.1808 292° West 437 503 39,300 1,131 Climbing New York Center
Fri 08:01:06 PM 41.7164 -76.3286 290° West 437 503 40,000 347 Climbing New York Center
Fri 08:02:05 PM 41.7569 -76.4794 290° West 437 503 40,000  Level New York Center
Fri 08:03:06 PM 41.7922 -76.6131 290° West 437 503 40,000  Level New York Center
Fri 08:06:52 PM 41.9492 -77.1797 291° West 425 489 40,000  Level Cleveland Center
Fri 08:07:52 PM 41.9889 -77.3283 290° West 420 483 40,000  Level Cleveland Center
Fri 08:08:52 PM 42.0283 -77.4744 290° West 420 483 40,000  Level Cleveland Center
Fri 08:09:52 PM 42.0678 -77.6236 290° West 420 483 40,000  Level Cleveland Center
Fri 08:10:52 PM 42.1117 -77.7869 290° West 415 478 40,000  Level Cleveland Center
Fri 08:11:52 PM 42.1481 -77.9253 290° West 421 484 40,000  Level Cleveland Center
Fri 08:12:52 PM 42.1850 -78.0750 288° West 421 484 40,000  Level Cleveland Center
Fri 08:13:52 PM 42.2256 -78.2250 290° West 421 484 40,000  Level Cleveland Center
Fri 08:14:52 PM 42.2639 -78.3750 289° West 421 484 40,000  Level Cleveland Center
Fri 08:15:52 PM 42.3042 -78.5253 290° West 421 484 40,000  Level Cleveland Center
Fri 08:16:52 PM 42.3425 -78.6786 289° West 421 484 40,000  Level Cleveland Center
Fri 08:17:52 PM 42.3781 -78.8292 288° West 421 484 40,000  Level Cleveland Center
Fri 08:18:52 PM 42.4178 -78.9800 290° West 421 484 40,000  Level Cleveland Center
Fri 08:19:52 PM 42.4553 -79.1367 288° West 421 484 40,000  Level Cleveland Center
Fri 08:20:52 PM 42.4928 -79.3075 287° West 429 494 40,000  Level Cleveland Center
Fri 08:21:52 PM 42.5006 -79.4625 274° West 442 509 40,000  Level Cleveland Center
Fri 08:22:52 PM 42.5083 -79.6369 274° West 442 509 40,000  Level Cleveland Center
Fri 08:23:52 PM 42.5181 -79.8028 275° West 442 509 40,000  Level Cleveland Center
Fri 08:24:52 PM 42.5275 -79.9689 274° West 442 509 40,000  Level Cleveland Center
Fri 08:25:52 PM 42.5322 -80.1325 272° West 442 509 40,000  Level Cleveland Center
Fri 08:26:52 PM 42.5369 -80.2958 272° West 437 503 40,000  Level Cleveland Center
Fri 08:27:52 PM 42.5436 -80.4592 273° West 443 510 40,000  Level Cleveland Center
Fri 08:28:52 PM 42.5519 -80.6225 274° West 438 504 40,000  Level Cleveland Center
Fri 08:29:52 PM 42.5558 -80.7833 272° West 439 505 40,000  Level Cleveland Center
Fri 08:30:52 PM 42.5617 -80.9439 273° West 439 505 40,000  Level Cleveland Center
Fri 08:31:52 PM 42.5675 -81.0878 273° West 439 505 40,000  Level Cleveland Center
Fri 08:32:52 PM 42.5750 -81.2458 274° West 433 498 40,000  Level Cleveland Center
Fri 08:33:52 PM 42.5781 -81.4008 272° West 424 488 40,000  Level Cleveland Center
Fri 08:34:52 PM 42.6039 -81.5619 282° West 424 488 40,000  Level Cleveland Center
Fri 08:35:52 PM 42.6297 -81.7092 283° West 418 481 40,000  Level Cleveland Center
Fri 08:36:52 PM 42.6592 -81.8792 283° West 412 474 40,000  Level Cleveland Center
Fri 08:37:52 PM 42.6844 -82.0350 282° West 412 474 40,000  Level Cleveland Center
Fri 08:38:52 PM 42.7117 -82.1853 284° West 412 474 40,000  Level Cleveland Center
Fri 08:39:52 PM 42.7364 -82.3414 282° West 412 474 40,000  Level Cleveland Center
Fri 08:40:52 PM 42.7633 -82.4919 284° West 412 474 40,000  Level Cleveland Center
Fri 08:41:52 PM 42.7897 -82.6514 283° West 418 481 40,000  Level Cleveland Center
Fri 08:42:52 PM 42.8139 -82.8050 282° West 418 481 40,000  Level Cleveland Center
Fri 08:43:52 PM 42.8419 -82.9644 284° West 423 487 40,000  Level Cleveland Center
Fri 08:44:52 PM 42.8678 -83.1186 283° West 423 487 40,000  Level Cleveland Center
Fri 08:45:52 PM 42.8914 -83.2783 281° West 423 487 40,000  Level Cleveland Center
Fri 08:46:52 PM 42.9147 -83.4322 282° West 428 493 40,000  Level Cleveland Center
Fri 08:47:52 PM 42.9400 -83.5922 282° West 428 493 40,000  Level Cleveland Center
Fri 08:48:52 PM 42.9650 -83.7497 282° West 428 493 40,000 -300 Level Cleveland Center
Fri 08:49:52 PM 42.9814 -83.9067 278° West 428 493 39,400 -805 Descending Cleveland Center
Fri 08:51:36 PM 43.0033 -84.1436 277° West 398 458 37,800 -904 Descending Chicago Center
Fri 08:52:38 PM 43.0194 -84.2994 278° West 409 471 36,900 -823 Descending Chicago Center
Fri 08:53:40 PM 43.0339 -84.4608 277° West 425 489 36,100 -435 Descending Chicago Center
Fri 08:54:42 PM 43.0517 -84.6522 277° West 425 489 36,000 -48 Descending Chicago Center
Fri 08:55:44 PM 43.0667 -84.8056 278° West 412 474 36,000  Level Chicago Center
Fri 08:56:46 PM 43.0794 -84.9575 277° West 404 465 36,000  Level Chicago Center
Fri 08:57:47 PM 43.0925 -85.1078 277° West 400 460 36,000  Level Chicago Center
Fri 08:58:49 PM 43.1056 -85.2578 277° West 400 460 36,000  Level Chicago Center
Fri 08:59:51 PM 43.1189 -85.4061 277° West 396 456 36,000 -581 Level Chicago Center
Fri 09:00:53 PM 43.1333 -85.5867 276° West 399 459 34,800 -1,016 Descending Chicago Center
Fri 09:01:55 PM 43.1469 -85.7403 277° West 407 468 33,900 -919 Descending Chicago Center
Fri 09:02:57 PM 43.1597 -85.8953 277° West 414 476 32,900 -1,355 Descending Chicago Center
Fri 09:03:59 PM 43.1706 -86.0483 276° West 417 480 31,100 -2,419 Descending Chicago Center
Fri 09:05:01 PM 43.1675 -86.2283 269° West 404 465 27,900 -2,758 Descending Chicago Center
Fri 09:06:03 PM 43.1647 -86.3742 269° West 390 449 25,400 -2,371 Descending Chicago Center
Fri 09:07:05 PM 43.1625 -86.5167 269° West 379 436 23,000 -2,274 Descending Chicago Center
Fri 09:08:07 PM 43.1597 -86.6500 268° West 352 405 20,700 -2,177 Descending Chicago Center
Fri 09:09:09 PM 43.1564 -86.7772 268° West 338 389 18,500 -2,129 Descending Chicago Center
Fri 09:10:11 PM 43.1556 -86.9017 270° West 328 377 16,300 -2,177 Descending Chicago Center
Fri 09:11:13 PM 43.1511 -87.0447 268° West 317 365 14,000 -1,645 Descending Chicago Center
Fri 09:12:15 PM 43.1486 -87.1469 268° West 271 312 12,900 -2,032 Descending Chicago Center
Fri 09:13:17 PM 43.1100 -87.2256 236° Southwest 273 314 9,800 -2,758 Descending Chicago Center
Fri 09:14:19 PM 43.0806 -87.3128 245° Southwest 257 296 7,200 -2,516 Descending Chicago Center
Fri 09:15:21 PM 43.0600 -87.4097 254° West 249 287 4,600 -2,274 Descending Chicago Center
Fri 09:16:23 PM 43.0403 -87.4950 252° West 238 274 2,500 -1,016 Descending Chicago Center
Fri 09:17:25 PM 43.0183 -87.5822 251° West 240 276 2,500  Level Chicago Center
Fri 09:18:26 PM 42.9975 -87.6708 252° West 243 280 2,500  Level Chicago Center
Fri 09:19:28 PM 42.9789 -87.7533 253° West 211 243 2,500 -242 Level Chicago Center
Fri 09:20:30 PM 42.9656 -87.8075 251° West 170 196 2,000 -581 Descending Chicago Center
Fri 09:21:32 PM 42.9553 -87.8472 251° West 150 173 1,300 -677 Descending Chicago Center
Fri 09:23:00 PM 42.9333 -87.8833 236° Southwest  Level FlightAware Approximate

Login

Don't have an account? Register now (free) for customized features, flight alerts, and more!